Liberty — FHQD — position and weather

sailwx.info

Track history (hours):
 
Tides and Currents Weather Stations Pressure Air Temp Water Temp Dewpoint Dewpoint Depression Visibility Wind Speed Wind Dir Waves Ship Positions

Liberty

Last reported at 2017-Dec-11 16:13 UTC. Time now 2017-Dec-12 14:17 UTC.
Position N 15°35' W 061°30'.

Length 47 m; draft 1.8 m.

Type: High speed craft. MMSI: 228008600.

Date/timePositionNaut miles runAvg speedWind from/ knotsBaromVisibWave heightAir tempDewpointWater temp
2017-Dec-11 16:13N 15°35' W 061°30'6422.7
2017-Dec-11 13:24N 14°36' W 061°04'0 0.7
2017-Dec-11 12:54N 14°36' W 061°04'713.6
2017-Dec-11 12:23N 14°30' W 061°07'12 1.0
2017-Dec-11 00:23N 14°18' W 061°04'1129.5
2017-Dec-11 00:00N 14°29' W 061°06'714.9
2017-Dec-10 23:30N 14°36' W 061°04'0 0.0
2017-Dec-10 23:00N 14°36' W 061°04'0 0.0
2017-Dec-10 22:30N 14°36' W 061°04'9022.7
2017-Dec-10 18:33N 16°03' W 061°29'227.5
2017-Dec-10 18:29N 16°04' W 061°29'1021.9
2017-Dec-10 18:00N 16°14' W 061°32'0 0.2
2017-Dec-10 17:29N 16°14' W 061°32'0 0.0
2017-Dec-10 17:00N 16°14' W 061°32'0 0.0
2017-Dec-10 16:28N 16°14' W 061°32'0 0.0
2017-Dec-10 15:52N 16°14' W 061°32'0 0.0
2017-Dec-10 15:29N 16°14' W 061°32'0 0.0
2017-Dec-10 14:17N 16°14' W 061°32'0 0.0
2017-Dec-10 14:00N 16°14' W 061°32'0 0.0
2017-Dec-10 13:29N 16°14' W 061°32'0 0.0
2017-Dec-10 13:00N 16°14' W 061°32'0 0.0
2017-Dec-10 12:30N 16°14' W 061°32'0 0.0
2017-Dec-10 11:51N 16°14' W 061°32'0 0.0
2017-Dec-10 11:30N 16°14' W 061°32'0 0.0
2017-Dec-10 11:00N 16°14' W 061°32'0 0.0
2017-Dec-10 10:30N 16°14' W 061°32'0 0.0
2017-Dec-10 09:59N 16°14' W 061°32'0 0.0
2017-Dec-10 09:30N 16°14' W 061°32'0 0.0
2017-Dec-10 09:00N 16°14' W 061°32'0 0.0
2017-Dec-10 08:30N 16°14' W 061°32'0 0.0
2017-Dec-10 08:00N 16°14' W 061°32'0 0.0
2017-Dec-10 07:30N 16°14' W 061°32'0 0.0
2017-Dec-10 06:59N 16°14' W 061°32'0 0.0
2017-Dec-10 06:30N 16°14' W 061°32'0 0.0
2017-Dec-10 05:58N 16°14' W 061°32'0 0.0
2017-Dec-10 05:30N 16°14' W 061°32'0 0.0
2017-Dec-10 04:58N 16°14' W 061°32'0 0.0
2017-Dec-10 04:30N 16°14' W 061°32'0 0.0
2017-Dec-10 04:00N 16°14' W 061°32'0 0.0
2017-Dec-10 03:30N 16°14' W 061°32'0 0.0
2017-Dec-10 03:00N 16°14' W 061°32'0 0.0
2017-Dec-10 02:30N 16°14' W 061°32'0 0.0
2017-Dec-10 01:52N 16°14' W 061°32'1 4.0
2017-Dec-10 01:30N 16°13' W 061°32'1624.0
2017-Dec-10 00:51N 15°58' W 061°35'1112.1
2017-Dec-09 23:59N 16°01' W 061°46'1428.2
2017-Dec-09 23:30N 16°14' W 061°50'1325.9
2017-Dec-09 23:00N 16°27' W 061°51'1223.8
2017-Dec-09 22:31N 16°38' W 061°53'1224.1
2017-Dec-09 22:01N 16°50' W 061°55'1326.2
2017-Dec-09 21:30N 17°03' W 061°56'713.0
2017-Dec-09 21:00N 17°07' W 061°51'0 0.0
2017-Dec-09 20:30N 17°07' W 061°51'0 0.0
2017-Dec-09 20:00N 17°07' W 061°51'0 0.0
2017-Dec-09 19:31N 17°07' W 061°51'0 0.0
2017-Dec-09 19:00N 17°07' W 061°51'0 0.0
2017-Dec-09 18:31N 17°07' W 061°51'0 0.0
2017-Dec-09 18:00N 17°07' W 061°51'0 0.0
2017-Dec-09 17:30N 17°07' W 061°51'0 0.0
2017-Dec-09 17:00N 17°07' W 061°51'0 0.0
2017-Dec-09 16:30N 17°07' W 061°51'0 0.0
2017-Dec-09 16:00N 17°07' W 061°51'0 0.0
2017-Dec-09 15:30N 17°07' W 061°51'0 0.0
2017-Dec-09 15:00N 17°07' W 061°51'0 0.0
2017-Dec-09 14:30N 17°07' W 061°51'0 0.0
2017-Dec-09 14:00N 17°07' W 061°51'0 0.0
2017-Dec-09 13:31N 17°07' W 061°51'3 6.4
2017-Dec-09 13:01N 17°08' W 061°54'1325.4
2017-Dec-09 12:31N 16°55' W 061°55'1325.7
2017-Dec-09 12:01N 16°42' W 061°54'1326.0
2017-Dec-09 11:31N 16°29' W 061°53'1326.2
2017-Dec-09 11:01N 16°16' W 061°50'1428.6
2017-Dec-09 10:30N 16°03' W 061°47'5 0.4
2017-Dec-08 20:47N 15°58' W 061°44'824.7
2017-Dec-08 20:29N 15°58' W 061°36'1225.7
2017-Dec-08 20:00N 16°09' W 061°31'510.3
2017-Dec-08 19:29N 16°14' W 061°32'0 0.0
2017-Dec-08 19:00N 16°14' W 061°32'0 0.0
2017-Dec-08 18:30N 16°14' W 061°32'814.6
2017-Dec-08 17:59N 16°07' W 061°31'9521.3
2017-Dec-08 13:31N 14°35' W 061°05'124.0
2017-Dec-08 13:29N 14°35' W 061°04'0 0.5
2017-Dec-08 12:36N 14°36' W 061°04'0 4.4
2017-Dec-08 12:30N 14°35' W 061°04'1327.0
2017-Dec-08 12:00N 14°22' W 061°06'8 0.9
2017-Dec-08 02:59N 14°14' W 061°04'1327.7
2017-Dec-08 02:31N 14°27' W 061°06'918.3
2017-Dec-08 02:00N 14°36' W 061°04'0 0.5
2017-Dec-08 01:31N 14°36' W 061°04'9022.5
2017-Dec-07 21:30N 16°03' W 061°28'1123.0
2017-Dec-07 21:00N 16°14' W 061°32'1 1.2
2017-Dec-07 20:30N 16°14' W 061°32'0 0.0
2017-Dec-07 20:00N 16°14' W 061°32'0 0.0
2017-Dec-07 19:28N 16°14' W 061°32'0 0.0
2017-Dec-07 18:58N 16°14' W 061°32'0 0.0
2017-Dec-07 18:27N 16°14' W 061°32'0 0.0
2017-Dec-07 18:00N 16°14' W 061°32'0 0.0
2017-Dec-07 17:30N 16°14' W 061°32'0 0.0
2017-Dec-07 16:35N 16°14' W 061°32'0 0.0
2017-Dec-07 16:30N 16°14' W 061°32'0 0.0
2017-Dec-07 15:59N 16°14' W 061°32'0 0.0
2017-Dec-07 15:29N 16°14' W 061°32'0 0.0
2017-Dec-07 15:00N 16°14' W 061°32'0 0.0
2017-Dec-07 14:04N 16°14' W 061°32'0 0.0
2017-Dec-07 13:59N 16°14' W 061°32'0 0.0
2017-Dec-07 13:27N 16°14' W 061°32'0 0.0
2017-Dec-07 13:00N 16°14' W 061°32'0 0.0
2017-Dec-07 12:30N 16°14' W 061°32'0 0.0
2017-Dec-07 11:59N 16°14' W 061°32'0 0.0
2017-Dec-07 11:29N 16°14' W 061°32'0 0.0
2017-Dec-07 11:00N 16°14' W 061°32'0 0.0
2017-Dec-07 10:30N 16°14' W 061°32'0 0.0
2017-Dec-07 09:57N 16°14' W 061°32'0 0.0
2017-Dec-07 09:29N 16°14' W 061°32'0 0.0
2017-Dec-07 08:59N 16°14' W 061°32'0 0.0
2017-Dec-07 08:30N 16°14' W 061°32'0 0.0
2017-Dec-07 08:00N 16°14' W 061°32'0 0.0
2017-Dec-07 07:30N 16°14' W 061°32'0 0.0
2017-Dec-07 07:00N 16°14' W 061°32'0 0.0
2017-Dec-07 06:29N 16°14' W 061°32'0 0.0
2017-Dec-07 06:00N 16°14' W 061°32'0 0.0
2017-Dec-07 05:30N 16°14' W 061°32'0 0.0
2017-Dec-07 05:00N 16°14' W 061°32'0 0.0
2017-Dec-07 04:26N 16°14' W 061°32'0 0.0
2017-Dec-07 03:59N 16°14' W 061°32'0 0.0
2017-Dec-07 03:30N 16°14' W 061°32'0 0.0
2017-Dec-07 02:54N 16°14' W 061°32'0 0.0
2017-Dec-07 02:27N 16°14' W 061°32'0 0.0
2017-Dec-07 01:56N 16°14' W 061°32'0 0.0
2017-Dec-07 01:21N 16°14' W 061°32'0 0.0
2017-Dec-07 00:57N 16°14' W 061°32'0 0.0
2017-Dec-07 00:30N 16°14' W 061°32'0 0.0
2017-Dec-07 00:00N 16°14' W 061°32'0 0.0
2017-Dec-06 23:26N 16°14' W 061°32'0 0.0
2017-Dec-06 22:00N 16°14' W 061°32'  
2017-Dec-04 00:11N 14°15' W 061°04'426.8
2017-Dec-04 00:01N 14°20' W 061°04'1326.5
2017-Dec-03 23:31N 14°33' W 061°05'3 6.8
2017-Dec-03 23:00N 14°36' W 061°04'0 0.0
2017-Dec-03 22:30N 14°36' W 061°04'9022.4
2017-Dec-03 18:30N 16°02' W 061°30'1222.6
2017-Dec-03 17:59N 16°14' W 061°32'1 0.2
2017-Dec-03 15:00N 16°14' W 061°32'0 0.0
2017-Dec-03 14:29N 16°14' W 061°32'0 0.0
2017-Dec-03 13:59N 16°14' W 061°32'0 0.0
2017-Dec-03 13:28N 16°14' W 061°32'0 0.0
2017-Dec-03 12:45N 16°14' W 061°32'0 0.0
2017-Dec-03 12:25N 16°14' W 061°32'0 0.0
2017-Dec-03 11:33N 16°14' W 061°32'0 0.0
2017-Dec-03 11:30N 16°14' W 061°32'0 0.0
2017-Dec-03 10:55N 16°14' W 061°32'0 0.0
2017-Dec-03 10:30N 16°14' W 061°32'0 0.0
2017-Dec-03 09:58N 16°14' W 061°32'0 0.0
2017-Dec-03 09:30N 16°14' W 061°32'0 0.0
2017-Dec-03 08:59N 16°14' W 061°32'0 0.0
2017-Dec-03 08:07N 16°14' W 061°32'0 0.0
2017-Dec-03 06:30N 16°14' W 061°32'0 0.0
2017-Dec-03 06:00N 16°14' W 061°32'0 0.0
2017-Dec-03 05:28N 16°14' W 061°32'0 0.0
2017-Dec-03 04:58N 16°14' W 061°32'0 0.0
2017-Dec-03 04:26N 16°14' W 061°32'0 0.0
2017-Dec-03 03:56N 16°14' W 061°32'0 0.0
2017-Dec-03 03:26N 16°14' W 061°32'0 0.0
2017-Dec-03 02:50N 16°14' W 061°32'0 0.0
2017-Dec-03 02:30N 16°14' W 061°32'0 0.0
2017-Dec-03 02:00N 16°14' W 061°32'0 0.0
2017-Dec-03 01:26N 16°14' W 061°32'0 0.0
2017-Dec-03 00:58N 16°14' W 061°32'0 0.0
2017-Dec-03 00:26N 16°14' W 061°32'0 0.0
2017-Dec-02 23:59N 16°14' W 061°32'0 0.0
2017-Dec-02 23:30N 16°14' W 061°32'0 0.0
2017-Dec-02 22:57N 16°14' W 061°32'0 0.0
2017-Dec-02 22:30N 16°14' W 061°32'611.4
2017-Dec-02 22:00N 16°09' W 061°31'1527.8
2017-Dec-02 21:27N 15°54' W 061°35'7919.0
2017-Dec-02 17:17N 14°39' W 061°10'724.6
2017-Dec-02 17:00N 14°36' W 061°04'0 0.9
2017-Dec-02 16:30N 14°36' W 061°04'0 0.0
2017-Dec-02 16:00N 14°36' W 061°04'918.0
2017-Dec-02 15:31N 14°27' W 061°06'1529.3
2017-Dec-02 15:00N 14°13' W 061°03'3 0.1
2017-Dec-01 18:00N 14°16' W 061°04'1326.3
2017-Dec-01 17:31N 14°28' W 061°06'815.4
2017-Dec-01 16:58N 14°36' W 061°04'0 0.0
2017-Dec-01 16:30N 14°36' W 061°04'  
Track history (hours):
 
Tides and Currents Weather Stations Pressure Air Temp Water Temp Dewpoint Dewpoint Depression Visibility Wind Speed Wind Dir Waves Ship Positions

Liberty

Last reported at 2017-Dec-11 16:13 UTC. Time now 2017-Dec-12 14:17 UTC.
Position N 15°35' W 061°30'.

Length 47 m; draft 1.8 m.

Type: High speed craft. MMSI: 228008600.

Date/timePositionNaut miles runAvg speedWind from/ knotsBaromVisibWave heightAir tempDewpointWater temp
2017-Dec-11 16:13N 15°35' W 061°30'6422.7
2017-Dec-11 13:24N 14°36' W 061°04'0 0.7
2017-Dec-11 12:54N 14°36' W 061°04'713.6
2017-Dec-11 12:23N 14°30' W 061°07'12 1.0
2017-Dec-11 00:23N 14°18' W 061°04'1129.5
2017-Dec-11 00:00N 14°29' W 061°06'714.9
2017-Dec-10 23:30N 14°36' W 061°04'0 0.0
2017-Dec-10 23:00N 14°36' W 061°04'0 0.0
2017-Dec-10 22:30N 14°36' W 061°04'9022.7
2017-Dec-10 18:33N 16°03' W 061°29'227.5
2017-Dec-10 18:29N 16°04' W 061°29'1021.9
2017-Dec-10 18:00N 16°14' W 061°32'0 0.2
2017-Dec-10 17:29N 16°14' W 061°32'0 0.0
2017-Dec-10 17:00N 16°14' W 061°32'0 0.0
2017-Dec-10 16:28N 16°14' W 061°32'0 0.0
2017-Dec-10 15:52N 16°14' W 061°32'0 0.0
2017-Dec-10 15:29N 16°14' W 061°32'0 0.0
2017-Dec-10 14:17N 16°14' W 061°32'0 0.0
2017-Dec-10 14:00N 16°14' W 061°32'0 0.0
2017-Dec-10 13:29N 16°14' W 061°32'0 0.0
2017-Dec-10 13:00N 16°14' W 061°32'0 0.0
2017-Dec-10 12:30N 16°14' W 061°32'0 0.0
2017-Dec-10 11:51N 16°14' W 061°32'0 0.0
2017-Dec-10 11:30N 16°14' W 061°32'0 0.0
2017-Dec-10 11:00N 16°14' W 061°32'0 0.0
2017-Dec-10 10:30N 16°14' W 061°32'0 0.0
2017-Dec-10 09:59N 16°14' W 061°32'0 0.0
2017-Dec-10 09:30N 16°14' W 061°32'0 0.0
2017-Dec-10 09:00N 16°14' W 061°32'0 0.0
2017-Dec-10 08:30N 16°14' W 061°32'0 0.0
2017-Dec-10 08:00N 16°14' W 061°32'0 0.0
2017-Dec-10 07:30N 16°14' W 061°32'0 0.0
2017-Dec-10 06:59N 16°14' W 061°32'0 0.0
2017-Dec-10 06:30N 16°14' W 061°32'0 0.0
2017-Dec-10 05:58N 16°14' W 061°32'0 0.0
2017-Dec-10 05:30N 16°14' W 061°32'0 0.0
2017-Dec-10 04:58N 16°14' W 061°32'0 0.0
2017-Dec-10 04:30N 16°14' W 061°32'0 0.0
2017-Dec-10 04:00N 16°14' W 061°32'0 0.0
2017-Dec-10 03:30N 16°14' W 061°32'0 0.0
2017-Dec-10 03:00N 16°14' W 061°32'0 0.0
2017-Dec-10 02:30N 16°14' W 061°32'0 0.0
2017-Dec-10 01:52N 16°14' W 061°32'1 4.0
2017-Dec-10 01:30N 16°13' W 061°32'1624.0
2017-Dec-10 00:51N 15°58' W 061°35'1112.1
2017-Dec-09 23:59N 16°01' W 061°46'1428.2
2017-Dec-09 23:30N 16°14' W 061°50'1325.9
2017-Dec-09 23:00N 16°27' W 061°51'1223.8
2017-Dec-09 22:31N 16°38' W 061°53'1224.1
2017-Dec-09 22:01N 16°50' W 061°55'1326.2
2017-Dec-09 21:30N 17°03' W 061°56'713.0
2017-Dec-09 21:00N 17°07' W 061°51'0 0.0
2017-Dec-09 20:30N 17°07' W 061°51'0 0.0
2017-Dec-09 20:00N 17°07' W 061°51'0 0.0
2017-Dec-09 19:31N 17°07' W 061°51'0 0.0
2017-Dec-09 19:00N 17°07' W 061°51'0 0.0
2017-Dec-09 18:31N 17°07' W 061°51'0 0.0
2017-Dec-09 18:00N 17°07' W 061°51'0 0.0
2017-Dec-09 17:30N 17°07' W 061°51'0 0.0
2017-Dec-09 17:00N 17°07' W 061°51'0 0.0
2017-Dec-09 16:30N 17°07' W 061°51'0 0.0
2017-Dec-09 16:00N 17°07' W 061°51'0 0.0
2017-Dec-09 15:30N 17°07' W 061°51'0 0.0
2017-Dec-09 15:00N 17°07' W 061°51'0 0.0
2017-Dec-09 14:30N 17°07' W 061°51'0 0.0
2017-Dec-09 14:00N 17°07' W 061°51'0 0.0
2017-Dec-09 13:31N 17°07' W 061°51'3 6.4
2017-Dec-09 13:01N 17°08' W 061°54'1325.4
2017-Dec-09 12:31N 16°55' W 061°55'1325.7
2017-Dec-09 12:01N 16°42' W 061°54'1326.0
2017-Dec-09 11:31N 16°29' W 061°53'1326.2
2017-Dec-09 11:01N 16°16' W 061°50'1428.6
2017-Dec-09 10:30N 16°03' W 061°47'5 0.4
2017-Dec-08 20:47N 15°58' W 061°44'824.7
2017-Dec-08 20:29N 15°58' W 061°36'1225.7
2017-Dec-08 20:00N 16°09' W 061°31'510.3
2017-Dec-08 19:29N 16°14' W 061°32'0 0.0
2017-Dec-08 19:00N 16°14' W 061°32'0 0.0
2017-Dec-08 18:30N 16°14' W 061°32'814.6
2017-Dec-08 17:59N 16°07' W 061°31'9521.3
2017-Dec-08 13:31N 14°35' W 061°05'124.0
2017-Dec-08 13:29N 14°35' W 061°04'0 0.5
2017-Dec-08 12:36N 14°36' W 061°04'0 4.4
2017-Dec-08 12:30N 14°35' W 061°04'1327.0
2017-Dec-08 12:00N 14°22' W 061°06'8 0.9
2017-Dec-08 02:59N 14°14' W 061°04'1327.7
2017-Dec-08 02:31N 14°27' W 061°06'918.3
2017-Dec-08 02:00N 14°36' W 061°04'0 0.5
2017-Dec-08 01:31N 14°36' W 061°04'9022.5
2017-Dec-07 21:30N 16°03' W 061°28'1123.0
2017-Dec-07 21:00N 16°14' W 061°32'1 1.2
2017-Dec-07 20:30N 16°14' W 061°32'0 0.0
2017-Dec-07 20:00N 16°14' W 061°32'0 0.0
2017-Dec-07 19:28N 16°14' W 061°32'0 0.0
2017-Dec-07 18:58N 16°14' W 061°32'0 0.0
2017-Dec-07 18:27N 16°14' W 061°32'0 0.0
2017-Dec-07 18:00N 16°14' W 061°32'0 0.0
2017-Dec-07 17:30N 16°14' W 061°32'0 0.0
2017-Dec-07 16:35N 16°14' W 061°32'0 0.0
2017-Dec-07 16:30N 16°14' W 061°32'0 0.0
2017-Dec-07 15:59N 16°14' W 061°32'0 0.0
2017-Dec-07 15:29N 16°14' W 061°32'0 0.0
2017-Dec-07 15:00N 16°14' W 061°32'0 0.0
2017-Dec-07 14:04N 16°14' W 061°32'0 0.0
2017-Dec-07 13:59N 16°14' W 061°32'0 0.0
2017-Dec-07 13:27N 16°14' W 061°32'0 0.0
2017-Dec-07 13:00N 16°14' W 061°32'0 0.0
2017-Dec-07 12:30N 16°14' W 061°32'0 0.0
2017-Dec-07 11:59N 16°14' W 061°32'0 0.0
2017-Dec-07 11:29N 16°14' W 061°32'0 0.0
2017-Dec-07 11:00N 16°14' W 061°32'0 0.0
2017-Dec-07 10:30N 16°14' W 061°32'0 0.0
2017-Dec-07 09:57N 16°14' W 061°32'0 0.0
2017-Dec-07 09:29N 16°14' W 061°32'0 0.0
2017-Dec-07 08:59N 16°14' W 061°32'0 0.0
2017-Dec-07 08:30N 16°14' W 061°32'0 0.0
2017-Dec-07 08:00N 16°14' W 061°32'0 0.0
2017-Dec-07 07:30N 16°14' W 061°32'0 0.0
2017-Dec-07 07:00N 16°14' W 061°32'0 0.0
2017-Dec-07 06:29N 16°14' W 061°32'0 0.0
2017-Dec-07 06:00N 16°14' W 061°32'0 0.0
2017-Dec-07 05:30N 16°14' W 061°32'0 0.0
2017-Dec-07 05:00N 16°14' W 061°32'0 0.0
2017-Dec-07 04:26N 16°14' W 061°32'0 0.0
2017-Dec-07 03:59N 16°14' W 061°32'0 0.0
2017-Dec-07 03:30N 16°14' W 061°32'0 0.0
2017-Dec-07 02:54N 16°14' W 061°32'0 0.0
2017-Dec-07 02:27N 16°14' W 061°32'0 0.0
2017-Dec-07 01:56N 16°14' W 061°32'0 0.0
2017-Dec-07 01:21N 16°14' W 061°32'0 0.0
2017-Dec-07 00:57N 16°14' W 061°32'0 0.0
2017-Dec-07 00:30N 16°14' W 061°32'0 0.0
2017-Dec-07 00:00N 16°14' W 061°32'0 0.0
2017-Dec-06 23:26N 16°14' W 061°32'0 0.0
2017-Dec-06 22:00N 16°14' W 061°32'  
2017-Dec-04 00:11N 14°15' W 061°04'426.8
2017-Dec-04 00:01N 14°20' W 061°04'1326.5
2017-Dec-03 23:31N 14°33' W 061°05'3 6.8
2017-Dec-03 23:00N 14°36' W 061°04'0 0.0
2017-Dec-03 22:30N 14°36' W 061°04'9022.4
2017-Dec-03 18:30N 16°02' W 061°30'1222.6
2017-Dec-03 17:59N 16°14' W 061°32'1 0.2
2017-Dec-03 15:00N 16°14' W 061°32'0 0.0
2017-Dec-03 14:29N 16°14' W 061°32'0 0.0
2017-Dec-03 13:59N 16°14' W 061°32'0 0.0
2017-Dec-03 13:28N 16°14' W 061°32'0 0.0
2017-Dec-03 12:45N 16°14' W 061°32'0 0.0
2017-Dec-03 12:25N 16°14' W 061°32'0 0.0
2017-Dec-03 11:33N 16°14' W 061°32'0 0.0
2017-Dec-03 11:30N 16°14' W 061°32'0 0.0
2017-Dec-03 10:55N 16°14' W 061°32'0 0.0
2017-Dec-03 10:30N 16°14' W 061°32'0 0.0
2017-Dec-03 09:58N 16°14' W 061°32'0 0.0
2017-Dec-03 09:30N 16°14' W 061°32'0 0.0
2017-Dec-03 08:59N 16°14' W 061°32'0 0.0
2017-Dec-03 08:07N 16°14' W 061°32'0 0.0
2017-Dec-03 06:30N 16°14' W 061°32'0 0.0
2017-Dec-03 06:00N 16°14' W 061°32'0 0.0
2017-Dec-03 05:28N 16°14' W 061°32'0 0.0
2017-Dec-03 04:58N 16°14' W 061°32'0 0.0
2017-Dec-03 04:26N 16°14' W 061°32'0 0.0
2017-Dec-03 03:56N 16°14' W 061°32'0 0.0
2017-Dec-03 03:26N 16°14' W 061°32'0 0.0
2017-Dec-03 02:50N 16°14' W 061°32'0 0.0
2017-Dec-03 02:30N 16°14' W 061°32'0 0.0
2017-Dec-03 02:00N 16°14' W 061°32'0 0.0
2017-Dec-03 01:26N 16°14' W 061°32'0 0.0
2017-Dec-03 00:58N 16°14' W 061°32'0 0.0
2017-Dec-03 00:26N 16°14' W 061°32'0 0.0
2017-Dec-02 23:59N 16°14' W 061°32'0 0.0
2017-Dec-02 23:30N 16°14' W 061°32'0 0.0
2017-Dec-02 22:57N 16°14' W 061°32'0 0.0
2017-Dec-02 22:30N 16°14' W 061°32'611.4
2017-Dec-02 22:00N 16°09' W 061°31'1527.8
2017-Dec-02 21:27N 15°54' W 061°35'7919.0
2017-Dec-02 17:17N 14°39' W 061°10'724.6
2017-Dec-02 17:00N 14°36' W 061°04'0 0.9
2017-Dec-02 16:30N 14°36' W 061°04'0 0.0
2017-Dec-02 16:00N 14°36' W 061°04'918.0
2017-Dec-02 15:31N 14°27' W 061°06'1529.3
2017-Dec-02 15:00N 14°13' W 061°03'3 0.1
2017-Dec-01 18:00N 14°16' W 061°04'1326.3
2017-Dec-01 17:31N 14°28' W 061°06'815.4
2017-Dec-01 16:58N 14°36' W 061°04'0 0.0
2017-Dec-01 16:30N 14°36' W 061°04'  

Dump ship's entire track history